sensor_id;sensor_type;location;lat;lon;timestamp;P1;durP1;ratioP1;P2;durP2;ratioP2
1366;SDS011;16877;48.810;9.282;2023-04-23T00:01:58;3.13;;;2.20;;
1366;SDS011;16877;48.810;9.282;2023-04-23T00:04:30;3.53;;;1.93;;
1366;SDS011;16877;48.810;9.282;2023-04-23T00:07:01;4.57;;;2.00;;
1366;SDS011;16877;48.810;9.282;2023-04-23T00:09:31;6.50;;;2.80;;
1366;SDS011;16877;48.810;9.282;2023-04-23T00:11:59;4.83;;;2.67;;
1366;SDS011;16877;48.810;9.282;2023-04-23T00:14:27;3.90;;;2.30;;
1366;SDS011;16877;48.810;9.282;2023-04-23T00:16:55;3.90;;;1.90;;
1366;SDS011;16877;48.810;9.282;2023-04-23T00:19:22;4.03;;;2.33;;
1366;SDS011;16877;48.810;9.282;2023-04-23T00:21:51;3.40;;;2.07;;
1366;SDS011;16877;48.810;9.282;2023-04-23T00:24:19;3.27;;;2.20;;
1366;SDS011;16877;48.810;9.282;2023-04-23T00:26:46;2.80;;;2.00;;
1366;SDS011;16877;48.810;9.282;2023-04-23T00:29:17;3.27;;;2.33;;
1366;SDS011;16877;48.810;9.282;2023-04-23T00:31:44;5.13;;;2.60;;
1366;SDS011;16877;48.810;9.282;2023-04-23T00:34:12;4.20;;;2.00;;
1366;SDS011;16877;48.810;9.282;2023-04-23T00:36:39;7.03;;;2.17;;
1366;SDS011;16877;48.810;9.282;2023-04-23T00:39:09;5.47;;;2.50;;
1366;SDS011;16877;48.810;9.282;2023-04-23T00:41:37;2.60;;;1.77;;
1366;SDS011;16877;48.810;9.282;2023-04-23T00:44:05;3.80;;;2.10;;
1366;SDS011;16877;48.810;9.282;2023-04-23T00:46:33;3.23;;;1.97;;
1366;SDS011;16877;48.810;9.282;2023-04-23T00:49:01;4.60;;;2.00;;
1366;SDS011;16877;48.810;9.282;2023-04-23T00:51:29;2.63;;;1.70;;
1366;SDS011;16877;48.810;9.282;2023-04-23T00:53:57;4.13;;;2.40;;
1366;SDS011;16877;48.810;9.282;2023-04-23T00:56:26;3.57;;;2.10;;
1366;SDS011;16877;48.810;9.282;2023-04-23T00:58:54;4.03;;;2.20;;
1366;SDS011;16877;48.810;9.282;2023-04-23T01:01:23;3.30;;;1.97;;
1366;SDS011;16877;48.810;9.282;2023-04-23T01:03:51;3.20;;;1.70;;
1366;SDS011;16877;48.810;9.282;2023-04-23T01:06:20;4.20;;;2.17;;
1366;SDS011;16877;48.810;9.282;2023-04-23T01:08:49;2.70;;;1.20;;
1366;SDS011;16877;48.810;9.282;2023-04-23T01:11:17;3.70;;;1.70;;
1366;SDS011;16877;48.810;9.282;2023-04-23T01:13:46;4.37;;;2.23;;
1366;SDS011;16877;48.810;9.282;2023-04-23T01:16:13;2.77;;;1.87;;
1366;SDS011;16877;48.810;9.282;2023-04-23T01:18:41;3.13;;;2.00;;
1366;SDS011;16877;48.810;9.282;2023-04-23T01:21:08;2.30;;;1.40;;
1366;SDS011;16877;48.810;9.282;2023-04-23T01:23:38;3.47;;;2.23;;
1366;SDS011;16877;48.810;9.282;2023-04-23T01:26:06;2.97;;;1.87;;
1366;SDS011;16877;48.810;9.282;2023-04-23T01:28:35;2.90;;;2.00;;
1366;SDS011;16877;48.810;9.282;2023-04-23T01:31:02;3.97;;;2.10;;
1366;SDS011;16877;48.810;9.282;2023-04-23T01:33:31;3.97;;;2.00;;
1366;SDS011;16877;48.810;9.282;2023-04-23T01:35:58;2.80;;;1.37;;
1366;SDS011;16877;48.810;9.282;2023-04-23T01:38:27;4.67;;;2.10;;
1366;SDS011;16877;48.810;9.282;2023-04-23T01:40:58;2.40;;;1.60;;
1366;SDS011;16877;48.810;9.282;2023-04-23T01:43:26;2.60;;;1.60;;
1366;SDS011;16877;48.810;9.282;2023-04-23T01:45:54;2.73;;;1.60;;
1366;SDS011;16877;48.810;9.282;2023-04-23T01:48:23;3.30;;;1.73;;
1366;SDS011;16877;48.810;9.282;2023-04-23T01:50:51;4.70;;;1.83;;
1366;SDS011;16877;48.810;9.282;2023-04-23T01:53:19;3.30;;;1.70;;
1366;SDS011;16877;48.810;9.282;2023-04-23T01:55:47;4.37;;;2.07;;
1366;SDS011;16877;48.810;9.282;2023-04-23T01:58:18;3.93;;;2.23;;
1366;SDS011;16877;48.810;9.282;2023-04-23T02:00:47;2.50;;;1.80;;
1366;SDS011;16877;48.810;9.282;2023-04-23T02:03:15;4.83;;;1.80;;
1366;SDS011;16877;48.810;9.282;2023-04-23T02:05:43;2.97;;;1.43;;
1366;SDS011;16877;48.810;9.282;2023-04-23T02:08:10;3.83;;;2.00;;
1366;SDS011;16877;48.810;9.282;2023-04-23T02:10:37;4.47;;;1.43;;
1366;SDS011;16877;48.810;9.282;2023-04-23T02:13:05;2.97;;;1.80;;
1366;SDS011;16877;48.810;9.282;2023-04-23T02:15:35;2.60;;;1.70;;
1366;SDS011;16877;48.810;9.282;2023-04-23T02:18:02;2.80;;;1.80;;
1366;SDS011;16877;48.810;9.282;2023-04-23T02:20:31;4.03;;;2.03;;
1366;SDS011;16877;48.810;9.282;2023-04-23T02:23:00;2.67;;;1.73;;
1366;SDS011;16877;48.810;9.282;2023-04-23T02:25:27;2.90;;;1.87;;
1366;SDS011;16877;48.810;9.282;2023-04-23T02:27:56;3.60;;;1.70;;
1366;SDS011;16877;48.810;9.282;2023-04-23T02:30:23;2.77;;;1.83;;
1366;SDS011;16877;48.810;9.282;2023-04-23T02:32:53;2.40;;;1.43;;
1366;SDS011;16877;48.810;9.282;2023-04-23T02:35:21;3.37;;;2.20;;
1366;SDS011;16877;48.810;9.282;2023-04-23T02:37:49;2.33;;;1.50;;
1366;SDS011;16877;48.810;9.282;2023-04-23T02:40:18;2.70;;;1.67;;
1366;SDS011;16877;48.810;9.282;2023-04-23T02:42:46;2.23;;;1.23;;
1366;SDS011;16877;48.810;9.282;2023-04-23T02:45:15;3.57;;;1.07;;
1366;SDS011;16877;48.810;9.282;2023-04-23T02:47:42;2.90;;;1.83;;
1366;SDS011;16877;48.810;9.282;2023-04-23T02:50:11;2.77;;;1.50;;
1366;SDS011;16877;48.810;9.282;2023-04-23T02:52:39;2.87;;;1.80;;
1366;SDS011;16877;48.810;9.282;2023-04-23T02:55:07;2.30;;;1.37;;
1366;SDS011;16877;48.810;9.282;2023-04-23T02:57:35;4.07;;;1.80;;
1366;SDS011;16877;48.810;9.282;2023-04-23T03:00:02;3.60;;;1.70;;
1366;SDS011;16877;48.810;9.282;2023-04-23T03:02:32;2.13;;;1.43;;
1366;SDS011;16877;48.810;9.282;2023-04-23T03:05:00;3.20;;;1.90;;
1366;SDS011;16877;48.810;9.282;2023-04-23T03:07:29;2.37;;;1.60;;
1366;SDS011;16877;48.810;9.282;2023-04-23T03:09:56;4.33;;;1.83;;
1366;SDS011;16877;48.810;9.282;2023-04-23T03:12:24;3.10;;;1.60;;
1366;SDS011;16877;48.810;9.282;2023-04-23T03:14:51;3.30;;;1.90;;
1366;SDS011;16877;48.810;9.282;2023-04-23T03:17:18;2.10;;;1.30;;
1366;SDS011;16877;48.810;9.282;2023-04-23T03:19:46;2.77;;;1.80;;
1366;SDS011;16877;48.810;9.282;2023-04-23T03:22:14;3.30;;;1.57;;
1366;SDS011;16877;48.810;9.282;2023-04-23T03:24:43;2.47;;;1.60;;
1366;SDS011;16877;48.810;9.282;2023-04-23T03:27:10;1.90;;;1.20;;
1366;SDS011;16877;48.810;9.282;2023-04-23T03:29:37;2.53;;;1.40;;
1366;SDS011;16877;48.810;9.282;2023-04-23T03:32:05;2.30;;;1.30;;
1366;SDS011;16877;48.810;9.282;2023-04-23T03:34:32;3.87;;;1.60;;
1366;SDS011;16877;48.810;9.282;2023-04-23T03:37:00;3.53;;;1.30;;
1366;SDS011;16877;48.810;9.282;2023-04-23T03:39:27;2.93;;;1.87;;
1366;SDS011;16877;48.810;9.282;2023-04-23T03:41:56;2.37;;;1.40;;
1366;SDS011;16877;48.810;9.282;2023-04-23T03:44:24;2.87;;;1.50;;
1366;SDS011;16877;48.810;9.282;2023-04-23T03:46:51;2.83;;;1.20;;
1366;SDS011;16877;48.810;9.282;2023-04-23T03:49:19;3.03;;;1.83;;
1366;SDS011;16877;48.810;9.282;2023-04-23T03:51:47;3.20;;;1.63;;
1366;SDS011;16877;48.810;9.282;2023-04-23T03:54:21;1.90;;;1.20;;
1366;SDS011;16877;48.810;9.282;2023-04-23T03:56:50;3.27;;;1.70;;
1366;SDS011;16877;48.810;9.282;2023-04-23T03:59:19;2.53;;;1.00;;
1366;SDS011;16877;48.810;9.282;2023-04-23T04:01:46;2.53;;;1.30;;
1366;SDS011;16877;48.810;9.282;2023-04-23T04:04:14;2.17;;;1.20;;
1366;SDS011;16877;48.810;9.282;2023-04-23T04:06:41;3.33;;;1.33;;
1366;SDS011;16877;48.810;9.282;2023-04-23T04:09:09;2.57;;;1.27;;
1366;SDS011;16877;48.810;9.282;2023-04-23T04:11:37;2.30;;;1.10;;
1366;SDS011;16877;48.810;9.282;2023-04-23T04:14:05;2.27;;;1.10;;
1366;SDS011;16877;48.810;9.282;2023-04-23T04:16:34;2.97;;;1.13;;
1366;SDS011;16877;48.810;9.282;2023-04-23T04:19:01;2.43;;;1.20;;
1366;SDS011;16877;48.810;9.282;2023-04-23T04:21:29;2.20;;;1.20;;
1366;SDS011;16877;48.810;9.282;2023-04-23T04:23:58;2.43;;;1.10;;
1366;SDS011;16877;48.810;9.282;2023-04-23T04:26:26;2.40;;;1.23;;
1366;SDS011;16877;48.810;9.282;2023-04-23T04:28:54;1.90;;;0.90;;
1366;SDS011;16877;48.810;9.282;2023-04-23T04:31:22;1.80;;;0.80;;
1366;SDS011;16877;48.810;9.282;2023-04-23T04:33:53;2.33;;;1.27;;
1366;SDS011;16877;48.810;9.282;2023-04-23T04:36:23;1.90;;;0.93;;
1366;SDS011;16877;48.810;9.282;2023-04-23T04:38:51;2.83;;;0.90;;
1366;SDS011;16877;48.810;9.282;2023-04-23T04:41:20;2.53;;;1.10;;
1366;SDS011;16877;48.810;9.282;2023-04-23T04:43:52;2.37;;;1.10;;
1366;SDS011;16877;48.810;9.282;2023-04-23T04:46:47;2.10;;;1.13;;
1366;SDS011;16877;48.810;9.282;2023-04-23T04:49:31;2.10;;;0.97;;
1366;SDS011;16877;48.810;9.282;2023-04-23T04:52:08;2.37;;;1.03;;
1366;SDS011;16877;48.810;9.282;2023-04-23T04:54:45;1.97;;;1.03;;
1366;SDS011;16877;48.810;9.282;2023-04-23T04:57:15;3.00;;;1.73;;
1366;SDS011;16877;48.810;9.282;2023-04-23T04:59:46;2.20;;;1.00;;
1366;SDS011;16877;48.810;9.282;2023-04-23T05:02:13;2.00;;;1.10;;
1366;SDS011;16877;48.810;9.282;2023-04-23T05:04:49;2.33;;;1.23;;
1366;SDS011;16877;48.810;9.282;2023-04-23T05:07:32;2.60;;;1.10;;
1366;SDS011;16877;48.810;9.282;2023-04-23T05:10:00;2.00;;;1.10;;
1366;SDS011;16877;48.810;9.282;2023-04-23T05:12:28;2.33;;;1.13;;
1366;SDS011;16877;48.810;9.282;2023-04-23T05:14:55;2.47;;;1.57;;
1366;SDS011;16877;48.810;9.282;2023-04-23T05:17:23;2.57;;;1.10;;
1366;SDS011;16877;48.810;9.282;2023-04-23T05:19:52;2.17;;;1.10;;
1366;SDS011;16877;48.810;9.282;2023-04-23T05:22:19;2.67;;;1.40;;
1366;SDS011;16877;48.810;9.282;2023-04-23T05:24:47;4.97;;;1.40;;
1366;SDS011;16877;48.810;9.282;2023-04-23T05:27:14;2.23;;;1.20;;
1366;SDS011;16877;48.810;9.282;2023-04-23T05:29:42;3.37;;;1.43;;
1366;SDS011;16877;48.810;9.282;2023-04-23T05:32:10;5.17;;;1.40;;
1366;SDS011;16877;48.810;9.282;2023-04-23T05:34:38;3.70;;;1.70;;
1366;SDS011;16877;48.810;9.282;2023-04-23T05:37:07;4.37;;;1.30;;
1366;SDS011;16877;48.810;9.282;2023-04-23T05:39:51;2.37;;;1.43;;
1366;SDS011;16877;48.810;9.282;2023-04-23T05:42:18;2.40;;;1.40;;
1366;SDS011;16877;48.810;9.282;2023-04-23T05:44:47;2.57;;;1.47;;
1366;SDS011;16877;48.810;9.282;2023-04-23T05:47:14;2.77;;;1.23;;
1366;SDS011;16877;48.810;9.282;2023-04-23T05:49:41;1.97;;;1.30;;
1366;SDS011;16877;48.810;9.282;2023-04-23T05:52:11;2.10;;;1.13;;
1366;SDS011;16877;48.810;9.282;2023-04-23T05:54:40;2.20;;;0.90;;
1366;SDS011;16877;48.810;9.282;2023-04-23T05:57:07;3.20;;;1.00;;
1366;SDS011;16877;48.810;9.282;2023-04-23T05:59:35;3.20;;;1.40;;
1366;SDS011;16877;48.810;9.282;2023-04-23T06:02:03;2.80;;;1.60;;
1366;SDS011;16877;48.810;9.282;2023-04-23T06:04:31;2.03;;;0.90;;
1366;SDS011;16877;48.810;9.282;2023-04-23T06:06:59;2.63;;;1.20;;
1366;SDS011;16877;48.810;9.282;2023-04-23T06:09:28;2.00;;;1.30;;
1366;SDS011;16877;48.810;9.282;2023-04-23T06:11:55;2.50;;;1.30;;
1366;SDS011;16877;48.810;9.282;2023-04-23T06:14:28;1.80;;;0.90;;
1366;SDS011;16877;48.810;9.282;2023-04-23T06:16:55;2.83;;;1.10;;
1366;SDS011;16877;48.810;9.282;2023-04-23T06:19:23;2.00;;;1.10;;
1366;SDS011;16877;48.810;9.282;2023-04-23T06:21:52;3.60;;;1.47;;
1366;SDS011;16877;48.810;9.282;2023-04-23T06:24:19;2.37;;;0.93;;
1366;SDS011;16877;48.810;9.282;2023-04-23T06:26:48;2.63;;;1.00;;
1366;SDS011;16877;48.810;9.282;2023-04-23T06:29:16;2.23;;;1.30;;
1366;SDS011;16877;48.810;9.282;2023-04-23T06:31:44;2.13;;;0.93;;
1366;SDS011;16877;48.810;9.282;2023-04-23T06:34:16;1.90;;;0.90;;
1366;SDS011;16877;48.810;9.282;2023-04-23T06:36:43;2.40;;;1.33;;
1366;SDS011;16877;48.810;9.282;2023-04-23T06:39:11;3.17;;;1.37;;
1366;SDS011;16877;48.810;9.282;2023-04-23T06:41:38;2.63;;;1.17;;
1366;SDS011;16877;48.810;9.282;2023-04-23T06:44:08;1.60;;;0.80;;
1366;SDS011;16877;48.810;9.282;2023-04-23T06:46:36;2.70;;;1.10;;
1366;SDS011;16877;48.810;9.282;2023-04-23T06:49:04;1.80;;;0.80;;
1366;SDS011;16877;48.810;9.282;2023-04-23T06:51:36;2.70;;;1.67;;
1366;SDS011;16877;48.810;9.282;2023-04-23T06:54:03;2.23;;;1.07;;
1366;SDS011;16877;48.810;9.282;2023-04-23T06:56:31;2.60;;;1.10;;
1366;SDS011;16877;48.810;9.282;2023-04-23T06:58:59;1.90;;;1.00;;
1366;SDS011;16877;48.810;9.282;2023-04-23T07:01:29;2.83;;;1.17;;
1366;SDS011;16877;48.810;9.282;2023-04-23T07:03:56;2.23;;;0.80;;
1366;SDS011;16877;48.810;9.282;2023-04-23T07:06:23;1.97;;;0.80;;
1366;SDS011;16877;48.810;9.282;2023-04-23T07:08:52;1.93;;;1.00;;
1366;SDS011;16877;48.810;9.282;2023-04-23T07:11:19;1.90;;;0.90;;
1366;SDS011;16877;48.810;9.282;2023-04-23T07:13:47;1.90;;;0.90;;
1366;SDS011;16877;48.810;9.282;2023-04-23T07:16:15;2.47;;;0.97;;
1366;SDS011;16877;48.810;9.282;2023-04-23T07:18:44;2.40;;;1.17;;
1366;SDS011;16877;48.810;9.282;2023-04-23T07:21:11;1.80;;;0.80;;
1366;SDS011;16877;48.810;9.282;2023-04-23T07:23:39;2.27;;;1.10;;
1366;SDS011;16877;48.810;9.282;2023-04-23T07:26:06;1.50;;;0.70;;
1366;SDS011;16877;48.810;9.282;2023-04-23T07:28:34;1.70;;;0.80;;
1366;SDS011;16877;48.810;9.282;2023-04-23T07:31:01;1.70;;;0.90;;
1366;SDS011;16877;48.810;9.282;2023-04-23T07:33:29;2.13;;;1.10;;
1366;SDS011;16877;48.810;9.282;2023-04-23T07:35:58;1.90;;;1.00;;
1366;SDS011;16877;48.810;9.282;2023-04-23T07:38:26;2.83;;;0.80;;
1366;SDS011;16877;48.810;9.282;2023-04-23T07:40:53;1.90;;;0.90;;
1366;SDS011;16877;48.810;9.282;2023-04-23T07:43:24;1.67;;;0.80;;
1366;SDS011;16877;48.810;9.282;2023-04-23T07:45:51;2.00;;;0.93;;
1366;SDS011;16877;48.810;9.282;2023-04-23T07:48:19;2.20;;;1.10;;
1366;SDS011;16877;48.810;9.282;2023-04-23T07:50:46;1.67;;;0.70;;
1366;SDS011;16877;48.810;9.282;2023-04-23T07:53:15;1.70;;;0.80;;
1366;SDS011;16877;48.810;9.282;2023-04-23T07:55:59;2.80;;;1.13;;
1366;SDS011;16877;48.810;9.282;2023-04-23T07:58:26;1.90;;;0.90;;
1366;SDS011;16877;48.810;9.282;2023-04-23T08:00:54;2.13;;;1.07;;
1366;SDS011;16877;48.810;9.282;2023-04-23T08:03:21;2.23;;;0.80;;
1366;SDS011;16877;48.810;9.282;2023-04-23T08:05:49;1.80;;;0.90;;
1366;SDS011;16877;48.810;9.282;2023-04-23T08:08:18;1.80;;;0.80;;
1366;SDS011;16877;48.810;9.282;2023-04-23T08:10:45;2.10;;;1.10;;
1366;SDS011;16877;48.810;9.282;2023-04-23T08:13:15;2.20;;;0.97;;
1366;SDS011;16877;48.810;9.282;2023-04-23T08:15:42;2.30;;;1.10;;
1366;SDS011;16877;48.810;9.282;2023-04-23T08:18:10;2.53;;;1.17;;
1366;SDS011;16877;48.810;9.282;2023-04-23T08:20:37;1.90;;;0.90;;
1366;SDS011;16877;48.810;9.282;2023-04-23T08:23:05;2.10;;;0.83;;
1366;SDS011;16877;48.810;9.282;2023-04-23T08:25:36;1.80;;;0.83;;
1366;SDS011;16877;48.810;9.282;2023-04-23T08:28:04;2.00;;;0.90;;
1366;SDS011;16877;48.810;9.282;2023-04-23T08:30:31;1.97;;;0.83;;
1366;SDS011;16877;48.810;9.282;2023-04-23T08:33:00;1.90;;;0.90;;
1366;SDS011;16877;48.810;9.282;2023-04-23T08:35:28;2.03;;;0.93;;
1366;SDS011;16877;48.810;9.282;2023-04-23T08:37:55;2.43;;;1.00;;
1366;SDS011;16877;48.810;9.282;2023-04-23T08:40:23;2.33;;;0.87;;
1366;SDS011;16877;48.810;9.282;2023-04-23T08:42:59;2.90;;;1.10;;
1366;SDS011;16877;48.810;9.282;2023-04-23T08:45:28;2.00;;;1.10;;
1366;SDS011;16877;48.810;9.282;2023-04-23T08:47:57;1.67;;;0.73;;
1366;SDS011;16877;48.810;9.282;2023-04-23T08:50:25;2.00;;;0.90;;
1366;SDS011;16877;48.810;9.282;2023-04-23T08:52:55;1.67;;;0.70;;
1366;SDS011;16877;48.810;9.282;2023-04-23T08:55:23;1.77;;;0.83;;
1366;SDS011;16877;48.810;9.282;2023-04-23T08:57:51;1.80;;;0.80;;
1366;SDS011;16877;48.810;9.282;2023-04-23T09:00:20;1.90;;;0.80;;
1366;SDS011;16877;48.810;9.282;2023-04-23T09:02:50;2.97;;;1.20;;
1366;SDS011;16877;48.810;9.282;2023-04-23T09:05:17;1.90;;;0.93;;
1366;SDS011;16877;48.810;9.282;2023-04-23T09:07:45;2.57;;;1.23;;
1366;SDS011;16877;48.810;9.282;2023-04-23T09:10:13;2.00;;;1.10;;
1366;SDS011;16877;48.810;9.282;2023-04-23T09:12:41;2.70;;;1.00;;
1366;SDS011;16877;48.810;9.282;2023-04-23T09:15:09;2.23;;;1.20;;
1366;SDS011;16877;48.810;9.282;2023-04-23T09:17:45;1.70;;;0.70;;
1366;SDS011;16877;48.810;9.282;2023-04-23T09:20:20;1.90;;;0.87;;
1366;SDS011;16877;48.810;9.282;2023-04-23T09:22:48;3.90;;;1.03;;
1366;SDS011;16877;48.810;9.282;2023-04-23T09:25:18;2.23;;;1.03;;
1366;SDS011;16877;48.810;9.282;2023-04-23T09:27:52;1.83;;;0.80;;
1366;SDS011;16877;48.810;9.282;2023-04-23T09:30:31;1.90;;;0.90;;
1366;SDS011;16877;48.810;9.282;2023-04-23T09:33:27;2.10;;;1.37;;
1366;SDS011;16877;48.810;9.282;2023-04-23T09:35:58;2.53;;;1.17;;
1366;SDS011;16877;48.810;9.282;2023-04-23T09:38:32;2.60;;;1.10;;
1366;SDS011;16877;48.810;9.282;2023-04-23T09:43:51;2.27;;;0.90;;
1366;SDS011;16877;48.810;9.282;2023-04-23T09:46:32;2.13;;;1.00;;
1366;SDS011;16877;48.810;9.282;2023-04-23T09:49:02;2.07;;;1.00;;
1366;SDS011;16877;48.810;9.282;2023-04-23T09:51:34;2.07;;;1.10;;
1366;SDS011;16877;48.810;9.282;2023-04-23T09:54:09;2.10;;;0.87;;
1366;SDS011;16877;48.810;9.282;2023-04-23T09:56:43;1.80;;;0.97;;
1366;SDS011;16877;48.810;9.282;2023-04-23T09:59:21;3.00;;;1.10;;
1366;SDS011;16877;48.810;9.282;2023-04-23T10:01:51;2.00;;;1.10;;
1366;SDS011;16877;48.810;9.282;2023-04-23T10:04:34;2.10;;;1.27;;
1366;SDS011;16877;48.810;9.282;2023-04-23T10:07:12;2.03;;;0.93;;
1366;SDS011;16877;48.810;9.282;2023-04-23T10:09:41;2.20;;;1.20;;
1366;SDS011;16877;48.810;9.282;2023-04-23T10:12:17;2.70;;;1.20;;
1366;SDS011;16877;48.810;9.282;2023-04-23T10:14:46;2.90;;;1.30;;
1366;SDS011;16877;48.810;9.282;2023-04-23T10:17:30;2.30;;;1.03;;
1366;SDS011;16877;48.810;9.282;2023-04-23T10:20:12;4.17;;;0.90;;
1366;SDS011;16877;48.810;9.282;2023-04-23T10:22:41;2.07;;;1.00;;
1366;SDS011;16877;48.810;9.282;2023-04-23T10:25:13;1.93;;;1.03;;
1366;SDS011;16877;48.810;9.282;2023-04-23T10:27:46;2.30;;;1.10;;
1366;SDS011;16877;48.810;9.282;2023-04-23T10:30:15;2.03;;;0.83;;
1366;SDS011;16877;48.810;9.282;2023-04-23T10:32:45;1.80;;;0.70;;
1366;SDS011;16877;48.810;9.282;2023-04-23T10:35:18;2.20;;;0.90;;
1366;SDS011;16877;48.810;9.282;2023-04-23T10:37:50;3.03;;;1.00;;
1366;SDS011;16877;48.810;9.282;2023-04-23T10:40:23;1.90;;;0.77;;
1366;SDS011;16877;48.810;9.282;2023-04-23T10:43:01;1.80;;;0.67;;
1366;SDS011;16877;48.810;9.282;2023-04-23T10:45:30;2.00;;;0.80;;
1366;SDS011;16877;48.810;9.282;2023-04-23T10:47:58;2.20;;;0.80;;
1366;SDS011;16877;48.810;9.282;2023-04-23T10:50:34;2.00;;;0.80;;
1366;SDS011;16877;48.810;9.282;2023-04-23T10:53:17;2.43;;;0.90;;
1366;SDS011;16877;48.810;9.282;2023-04-23T10:55:48;2.00;;;0.93;;
1366;SDS011;16877;48.810;9.282;2023-04-23T10:58:48;1.80;;;0.70;;
1366;SDS011;16877;48.810;9.282;2023-04-23T11:01:30;2.07;;;1.00;;
1366;SDS011;16877;48.810;9.282;2023-04-23T11:04:21;2.07;;;1.00;;
1366;SDS011;16877;48.810;9.282;2023-04-23T11:09:37;1.93;;;0.90;;
1366;SDS011;16877;48.810;9.282;2023-04-23T11:12:12;2.60;;;1.20;;
1366;SDS011;16877;48.810;9.282;2023-04-23T11:14:57;1.87;;;0.80;;
1366;SDS011;16877;48.810;9.282;2023-04-23T11:20:26;2.70;;;0.87;;
1366;SDS011;16877;48.810;9.282;2023-04-23T11:22:56;5.50;;;1.30;;
1366;SDS011;16877;48.810;9.282;2023-04-23T11:25:24;2.53;;;1.00;;
1366;SDS011;16877;48.810;9.282;2023-04-23T11:27:54;2.63;;;0.97;;
1366;SDS011;16877;48.810;9.282;2023-04-23T11:30:23;2.57;;;1.00;;
1366;SDS011;16877;48.810;9.282;2023-04-23T11:32:52;4.77;;;1.80;;
1366;SDS011;16877;48.810;9.282;2023-04-23T11:35:22;5.63;;;1.60;;
1366;SDS011;16877;48.810;9.282;2023-04-23T11:37:52;10.53;;;1.90;;
1366;SDS011;16877;48.810;9.282;2023-04-23T11:40:21;4.97;;;1.60;;
1366;SDS011;16877;48.810;9.282;2023-04-23T11:42:50;7.37;;;2.47;;
1366;SDS011;16877;48.810;9.282;2023-04-23T11:45:19;4.70;;;1.90;;
1366;SDS011;16877;48.810;9.282;2023-04-23T11:47:47;8.93;;;4.80;;
1366;SDS011;16877;48.810;9.282;2023-04-23T11:50:20;24.40;;;9.57;;
1366;SDS011;16877;48.810;9.282;2023-04-23T11:52:52;16.57;;;7.77;;
1366;SDS011;16877;48.810;9.282;2023-04-23T11:55:27;21.13;;;8.50;;
1366;SDS011;16877;48.810;9.282;2023-04-23T11:57:55;25.50;;;10.00;;
1366;SDS011;16877;48.810;9.282;2023-04-23T12:00:23;35.70;;;10.90;;
1366;SDS011;16877;48.810;9.282;2023-04-23T12:02:52;21.33;;;9.37;;
1366;SDS011;16877;48.810;9.282;2023-04-23T12:05:22;29.77;;;10.40;;
1366;SDS011;16877;48.810;9.282;2023-04-23T12:07:53;19.37;;;10.10;;
1366;SDS011;16877;48.810;9.282;2023-04-23T12:10:33;23.17;;;10.13;;
1366;SDS011;16877;48.810;9.282;2023-04-23T12:13:12;24.20;;;10.90;;
1366;SDS011;16877;48.810;9.282;2023-04-23T12:15:43;22.07;;;8.93;;
1366;SDS011;16877;48.810;9.282;2023-04-23T12:18:11;21.13;;;8.67;;
1366;SDS011;16877;48.810;9.282;2023-04-23T12:20:39;22.00;;;8.63;;
1366;SDS011;16877;48.810;9.282;2023-04-23T12:23:06;12.33;;;7.73;;
1366;SDS011;16877;48.810;9.282;2023-04-23T12:25:35;17.60;;;8.20;;
1366;SDS011;16877;48.810;9.282;2023-04-23T12:28:06;16.93;;;7.57;;
1366;SDS011;16877;48.810;9.282;2023-04-23T12:30:34;16.00;;;6.77;;
1366;SDS011;16877;48.810;9.282;2023-04-23T12:33:09;13.53;;;6.50;;
1366;SDS011;16877;48.810;9.282;2023-04-23T12:35:37;9.10;;;4.70;;
1366;SDS011;16877;48.810;9.282;2023-04-23T12:38:05;11.77;;;5.33;;
1366;SDS011;16877;48.810;9.282;2023-04-23T12:40:32;13.70;;;4.77;;
1366;SDS011;16877;48.810;9.282;2023-04-23T12:43:01;9.30;;;4.97;;
1366;SDS011;16877;48.810;9.282;2023-04-23T12:45:35;17.10;;;6.23;;
1366;SDS011;16877;48.810;9.282;2023-04-23T12:48:02;15.23;;;4.90;;
1366;SDS011;16877;48.810;9.282;2023-04-23T12:50:30;9.53;;;4.03;;
1366;SDS011;16877;48.810;9.282;2023-04-23T12:52:57;8.93;;;3.90;;
1366;SDS011;16877;48.810;9.282;2023-04-23T12:55:25;10.50;;;4.40;;
1366;SDS011;16877;48.810;9.282;2023-04-23T12:57:53;12.10;;;4.67;;
1366;SDS011;16877;48.810;9.282;2023-04-23T13:00:22;8.23;;;4.30;;
1366;SDS011;16877;48.810;9.282;2023-04-23T13:02:49;8.73;;;4.00;;
1366;SDS011;16877;48.810;9.282;2023-04-23T13:05:17;7.10;;;3.20;;
1366;SDS011;16877;48.810;9.282;2023-04-23T13:07:44;7.73;;;3.50;;
1366;SDS011;16877;48.810;9.282;2023-04-23T13:10:13;9.83;;;4.13;;
1366;SDS011;16877;48.810;9.282;2023-04-23T13:12:40;6.23;;;2.87;;
1366;SDS011;16877;48.810;9.282;2023-04-23T13:15:08;5.23;;;2.93;;
1366;SDS011;16877;48.810;9.282;2023-04-23T13:17:38;8.50;;;3.57;;
1366;SDS011;16877;48.810;9.282;2023-04-23T13:20:06;6.40;;;3.50;;
1366;SDS011;16877;48.810;9.282;2023-04-23T13:22:34;8.27;;;3.63;;
1366;SDS011;16877;48.810;9.282;2023-04-23T13:25:02;2.97;;;1.30;;
1366;SDS011;16877;48.810;9.282;2023-04-23T13:27:30;3.47;;;1.53;;
1366;SDS011;16877;48.810;9.282;2023-04-23T13:29:58;4.20;;;1.40;;
1366;SDS011;16877;48.810;9.282;2023-04-23T13:32:25;3.07;;;1.40;;
1366;SDS011;16877;48.810;9.282;2023-04-23T13:34:57;6.10;;;1.37;;
1366;SDS011;16877;48.810;9.282;2023-04-23T13:37:28;2.60;;;1.40;;
1366;SDS011;16877;48.810;9.282;2023-04-23T13:39:55;2.20;;;1.00;;
1366;SDS011;16877;48.810;9.282;2023-04-23T13:42:22;4.63;;;1.40;;
1366;SDS011;16877;48.810;9.282;2023-04-23T13:44:50;3.50;;;1.20;;
1366;SDS011;16877;48.810;9.282;2023-04-23T13:47:17;3.23;;;1.20;;
1366;SDS011;16877;48.810;9.282;2023-04-23T13:49:44;4.57;;;1.37;;
1366;SDS011;16877;48.810;9.282;2023-04-23T13:52:13;4.20;;;1.30;;
1366;SDS011;16877;48.810;9.282;2023-04-23T13:54:42;2.80;;;1.40;;
1366;SDS011;16877;48.810;9.282;2023-04-23T13:57:11;3.90;;;1.50;;
1366;SDS011;16877;48.810;9.282;2023-04-23T13:59:39;4.00;;;1.90;;
1366;SDS011;16877;48.810;9.282;2023-04-23T14:02:08;3.33;;;1.57;;
1366;SDS011;16877;48.810;9.282;2023-04-23T14:04:35;3.70;;;1.50;;
1366;SDS011;16877;48.810;9.282;2023-04-23T14:07:03;2.40;;;1.20;;
1366;SDS011;16877;48.810;9.282;2023-04-23T14:09:32;2.67;;;1.23;;
1366;SDS011;16877;48.810;9.282;2023-04-23T14:12:00;2.27;;;1.00;;
1366;SDS011;16877;48.810;9.282;2023-04-23T14:14:30;3.40;;;1.10;;
1366;SDS011;16877;48.810;9.282;2023-04-23T14:16:58;2.77;;;1.37;;
1366;SDS011;16877;48.810;9.282;2023-04-23T14:19:25;2.53;;;1.00;;
1366;SDS011;16877;48.810;9.282;2023-04-23T14:22:07;2.80;;;1.20;;
1366;SDS011;16877;48.810;9.282;2023-04-23T14:24:38;2.30;;;1.10;;
1366;SDS011;16877;48.810;9.282;2023-04-23T14:27:09;2.00;;;1.20;;
1366;SDS011;16877;48.810;9.282;2023-04-23T14:29:39;4.70;;;1.70;;
1366;SDS011;16877;48.810;9.282;2023-04-23T14:32:06;2.77;;;1.43;;
1366;SDS011;16877;48.810;9.282;2023-04-23T14:34:33;2.73;;;1.13;;
1366;SDS011;16877;48.810;9.282;2023-04-23T14:37:01;2.47;;;1.27;;
1366;SDS011;16877;48.810;9.282;2023-04-23T14:39:28;2.87;;;1.23;;
1366;SDS011;16877;48.810;9.282;2023-04-23T14:41:58;1.83;;;0.87;;
1366;SDS011;16877;48.810;9.282;2023-04-23T14:44:27;4.17;;;1.40;;
1366;SDS011;16877;48.810;9.282;2023-04-23T14:46:55;2.50;;;1.17;;
1366;SDS011;16877;48.810;9.282;2023-04-23T14:49:27;3.20;;;1.37;;
1366;SDS011;16877;48.810;9.282;2023-04-23T14:51:55;2.13;;;1.17;;
1366;SDS011;16877;48.810;9.282;2023-04-23T14:54:27;2.10;;;1.10;;
1366;SDS011;16877;48.810;9.282;2023-04-23T14:56:55;4.10;;;1.40;;
1366;SDS011;16877;48.810;9.282;2023-04-23T14:59:24;3.50;;;1.13;;
1366;SDS011;16877;48.810;9.282;2023-04-23T15:01:51;5.33;;;1.60;;
1366;SDS011;16877;48.810;9.282;2023-04-23T15:04:20;3.10;;;1.10;;
1366;SDS011;16877;48.810;9.282;2023-04-23T15:06:48;3.93;;;1.27;;
1366;SDS011;16877;48.810;9.282;2023-04-23T15:09:15;2.37;;;1.33;;
1366;SDS011;16877;48.810;9.282;2023-04-23T15:11:43;3.30;;;1.37;;
1366;SDS011;16877;48.810;9.282;2023-04-23T15:14:17;2.87;;;1.37;;
1366;SDS011;16877;48.810;9.282;2023-04-23T15:16:47;3.40;;;1.30;;
1366;SDS011;16877;48.810;9.282;2023-04-23T15:19:15;2.50;;;1.30;;
1366;SDS011;16877;48.810;9.282;2023-04-23T15:21:43;2.90;;;1.43;;
1366;SDS011;16877;48.810;9.282;2023-04-23T15:24:12;2.80;;;1.37;;